createdAt,value
2023-02-13T03:59:22.525Z,0.00
2023-02-13T04:00:22.615Z,0.00
2023-02-13T04:01:24.378Z,0.00
2023-02-13T04:02:24.634Z,0.00
2023-02-13T04:03:23.991Z,0.00
2023-02-13T04:04:23.132Z,0.00
2023-02-13T04:05:24.905Z,0.00
2023-02-13T04:06:24.392Z,0.00
2023-02-13T04:07:25.145Z,0.00
2023-02-13T04:08:23.718Z,0.00
2023-02-13T04:09:25.451Z,0.00
2023-02-13T04:10:25.697Z,0.00
2023-02-13T04:11:25.953Z,0.00
2023-02-13T04:12:26.174Z,0.00
2023-02-13T04:13:24.371Z,0.00
2023-02-13T04:14:26.109Z,0.00
2023-02-13T04:15:26.320Z,0.00
2023-02-13T04:16:26.597Z,0.00
2023-02-13T04:17:26.847Z,0.00
2023-02-13T04:18:24.941Z,0.00
2023-02-13T04:19:26.037Z,0.00
2023-02-13T04:20:25.219Z,0.00
2023-02-13T04:21:26.469Z,0.00
2023-02-13T04:22:26.581Z,0.00
2023-02-13T04:23:25.610Z,0.00
2023-02-13T04:24:27.348Z,0.00
2023-02-13T04:25:27.568Z,0.00
2023-02-13T04:26:25.980Z,0.00
2023-02-13T04:27:27.228Z,0.00
2023-02-13T04:28:27.509Z,0.00
2023-02-13T04:29:26.401Z,0.00
2023-02-13T04:30:27.646Z,0.00
2023-02-13T04:31:26.726Z,0.00
2023-02-13T04:32:28.369Z,0.00
2023-02-13T04:33:28.627Z,0.00
2023-02-13T04:34:28.850Z,0.00
2023-02-13T04:35:29.080Z,0.00
2023-02-13T04:36:29.308Z,0.00
2023-02-13T04:37:29.553Z,0.00
2023-02-13T04:38:29.265Z,0.00
2023-02-13T04:39:29.493Z,0.00
2023-02-13T04:40:29.719Z,0.00
2023-02-13T04:41:29.953Z,0.00
2023-02-13T04:42:30.187Z,0.00
2023-02-13T04:43:29.911Z,0.00
2023-02-13T04:44:30.148Z,0.00
2023-02-13T04:45:30.398Z,0.00
2023-02-13T04:46:30.627Z,0.00
2023-02-13T04:47:30.369Z,0.00
2023-02-13T04:48:31.566Z,0.00
2023-02-13T04:49:30.867Z,0.00
2023-02-13T04:50:29.264Z,0.00
2023-02-13T04:51:29.406Z,0.00
2023-02-13T04:52:30.661Z,0.00
2023-02-13T04:53:29.697Z,0.00
2023-02-13T04:54:29.856Z,0.00
2023-02-13T04:55:30.837Z,0.00
2023-02-13T04:56:30.163Z,0.00
2023-02-13T04:57:31.905Z,0.00
2023-02-13T04:58:30.387Z,0.00
2023-02-13T04:59:30.566Z,0.00
2023-02-13T05:00:32.295Z,0.00
2023-02-13T05:01:30.891Z,0.00
2023-02-13T05:02:32.087Z,0.00
2023-02-13T05:03:31.126Z,0.00
2023-02-13T05:04:31.284Z,0.00
2023-02-13T05:05:32.959Z,0.00
2023-02-13T05:06:33.211Z,0.00
2023-02-13T05:07:33.441Z,0.00
2023-02-13T05:08:32.745Z,0.00
2023-02-13T05:09:32.714Z,0.00
2023-02-13T05:10:33.638Z,0.00
2023-02-13T05:11:33.883Z,0.00
2023-02-13T05:12:34.144Z,0.00
2023-02-13T05:13:34.371Z,0.00
2023-02-13T05:14:34.087Z,0.00
2023-02-13T05:15:34.366Z,0.00
2023-02-13T05:16:34.620Z,0.00
2023-02-13T05:17:34.807Z,0.00
2023-02-13T05:18:35.015Z,0.00
2023-02-13T05:19:35.235Z,0.00
2023-02-13T05:20:34.964Z,0.00
2023-02-13T05:21:35.204Z,0.00
2023-02-13T05:22:35.473Z,0.00
2023-02-13T05:23:34.775Z,0.00
2023-02-13T05:24:33.898Z,0.00
2023-02-13T05:25:35.642Z,0.00
2023-02-13T05:26:34.192Z,0.00
2023-02-13T05:27:35.433Z,0.00
2023-02-13T05:28:35.778Z,0.00
2023-02-13T05:29:34.563Z,0.00
2023-02-13T05:30:34.690Z,0.00
2023-02-13T05:31:36.068Z,0.00
2023-02-13T05:32:35.005Z,0.00
2023-02-13T05:33:36.261Z,0.00
2023-02-13T05:34:35.298Z,0.00
2023-02-13T05:35:35.422Z,0.00
2023-02-13T05:36:35.572Z,0.00
2023-02-13T05:37:36.827Z,0.00
2023-02-13T05:38:36.824Z,0.00
2023-02-13T05:39:36.013Z,0.00
2023-02-13T05:40:37.156Z,0.00
2023-02-13T05:41:37.394Z,0.00
2023-02-13T05:42:37.452Z,0.00
2023-02-13T05:43:37.553Z,0.00
2023-02-13T05:44:37.693Z,0.00
2023-02-13T05:45:37.423Z,0.00
2023-02-13T05:46:39.174Z,0.00
2023-02-13T05:47:38.140Z,0.00
2023-02-13T05:48:38.289Z,0.00
2023-02-13T05:49:38.422Z,0.00
2023-02-13T05:50:38.636Z,0.00
2023-02-13T05:51:38.864Z,0.00
2023-02-13T05:52:38.744Z,0.00
2023-02-13T05:53:38.987Z,0.00
2023-02-13T05:54:38.024Z,0.00
2023-02-13T05:55:39.092Z,0.00
2023-02-13T05:56:38.869Z,0.00
2023-02-13T05:57:39.444Z,0.00
2023-02-13T05:58:39.601Z,0.00
2023-02-13T05:59:40.343Z,0.00
2023-02-13T06:00:40.550Z,0.00
2023-02-13T06:01:40.790Z,0.00
2023-02-13T06:02:41.053Z,0.00
2023-02-13T06:03:40.832Z,0.00
2023-02-13T06:04:40.987Z,0.00
2023-02-13T06:05:41.249Z,0.00
2023-02-13T06:06:41.497Z,0.00
2023-02-13T06:07:39.762Z,0.00
2023-02-13T06:08:41.489Z,0.00
2023-02-13T06:09:41.714Z,0.00
2023-02-13T06:10:44.252Z,0.00
2023-02-13T06:11:41.106Z,0.00
2023-02-13T06:12:41.401Z,0.00
2023-02-13T06:13:41.547Z,0.00
2023-02-13T06:14:41.745Z,0.00
2023-02-13T06:15:41.857Z,0.00
2023-02-13T06:16:41.925Z,0.00
2023-02-13T06:17:42.079Z,0.00
2023-02-13T06:18:42.293Z,0.00
2023-02-13T06:19:43.056Z,0.00
2023-02-13T06:20:42.292Z,0.00
2023-02-13T06:21:43.191Z,0.00
2023-02-13T06:22:42.728Z,0.00
2023-02-13T06:23:42.874Z,0.00
2023-02-13T06:24:43.615Z,0.00
2023-02-13T06:25:43.153Z,0.00
2023-02-13T06:26:43.290Z,0.00
2023-02-13T06:27:43.543Z,0.00
2023-02-13T06:28:43.693Z,0.00
2023-02-13T06:29:42.627Z,1.00
2023-02-13T06:30:42.834Z,1.00
2023-02-13T06:31:42.981Z,1.00
2023-02-13T06:32:43.081Z,2.00
2023-02-13T06:33:44.811Z,0.00
2023-02-13T06:34:43.334Z,2.00
2023-02-13T06:35:44.576Z,2.00
2023-02-13T06:36:43.617Z,2.00
2023-02-13T06:37:43.736Z,3.00
2023-02-13T06:38:44.974Z,1.00
2023-02-13T06:39:44.031Z,3.00
2023-02-13T06:40:44.212Z,3.00
2023-02-13T06:41:44.386Z,4.00
2023-02-13T06:42:46.130Z,4.00
2023-02-13T06:43:45.662Z,7.00
2023-02-13T06:44:45.827Z,5.00
2023-02-13T06:45:46.621Z,5.00
2023-02-13T06:46:46.964Z,6.00
2023-02-13T06:47:45.265Z,6.00
2023-02-13T06:48:47.925Z,9.00
2023-02-13T06:49:46.490Z,8.00
2023-02-13T06:50:46.341Z,11.00
2023-02-13T06:51:46.749Z,12.00
2023-02-13T06:52:46.640Z,14.00
2023-02-13T06:53:47.770Z,14.00
2023-02-13T06:54:48.265Z,14.00
2023-02-13T06:55:48.880Z,15.00
2023-02-13T06:56:48.251Z,16.00
2023-02-13T06:57:47.193Z,17.00
2023-02-13T06:58:46.959Z,17.00
2023-02-13T06:59:47.011Z,18.00
2023-02-13T07:00:50.204Z,19.00
2023-02-13T07:01:48.727Z,21.00
2023-02-13T07:02:50.588Z,22.00
2023-02-13T07:03:49.403Z,22.00
2023-02-13T07:04:48.683Z,25.00
2023-02-13T07:05:50.449Z,27.00
2023-02-13T07:06:49.784Z,27.00
2023-02-13T07:07:50.048Z,27.00
2023-02-13T07:08:49.801Z,27.00
2023-02-13T07:09:50.028Z,29.00
2023-02-13T07:10:50.279Z,31.00
2023-02-13T07:11:48.588Z,32.00
2023-02-13T07:13:03.626Z,35.00
2023-02-13T07:13:51.540Z,38.00
2023-02-13T07:14:49.908Z,38.00
2023-02-13T07:15:50.821Z,39.00
2023-02-13T07:16:49.966Z,40.00
2023-02-13T07:17:50.960Z,42.00
2023-02-13T07:18:50.288Z,45.00
2023-02-13T07:19:51.196Z,45.00
2023-02-13T07:20:51.446Z,51.00
2023-02-13T07:21:50.774Z,53.00
2023-02-13T07:22:51.565Z,57.00
2023-02-13T07:23:55.257Z,58.00
2023-02-13T07:24:53.024Z,62.00
2023-02-13T07:25:52.269Z,63.00
2023-02-13T07:26:51.437Z,64.00
2023-02-13T07:27:53.166Z,65.00
2023-02-13T07:29:05.679Z,64.00
2023-02-13T07:29:51.865Z,67.00
2023-02-13T07:30:52.662Z,69.00
2023-02-13T07:31:52.725Z,71.00
2023-02-13T07:32:52.277Z,74.00
2023-02-13T07:33:53.215Z,73.00
2023-02-13T07:35:01.741Z,75.00
2023-02-13T07:35:54.604Z,75.00
2023-02-13T07:36:53.445Z,80.00
2023-02-13T07:37:54.058Z,81.00
2023-02-13T07:38:53.049Z,86.00
2023-02-13T07:39:54.207Z,87.00
2023-02-13T07:40:52.396Z,86.00
2023-02-13T07:41:56.106Z,85.00
2023-02-13T07:42:52.616Z,85.00
2023-02-13T07:43:55.074Z,85.00
2023-02-13T07:44:54.994Z,89.00
2023-02-13T07:45:55.902Z,91.00
2023-02-13T07:46:55.811Z,94.00
2023-02-13T07:47:55.027Z,96.00
2023-02-13T07:48:54.327Z,102.00
2023-02-13T07:49:54.488Z,105.00
2023-02-13T07:50:55.233Z,111.00
2023-02-13T07:51:57.455Z,116.00
2023-02-13T07:52:55.932Z,120.00
2023-02-13T07:53:56.580Z,119.00
2023-02-13T07:54:55.057Z,120.00
2023-02-13T07:55:55.643Z,127.00
2023-02-13T07:56:56.178Z,123.00
2023-02-13T07:57:59.821Z,122.00
2023-02-13T07:58:54.787Z,126.00
2023-02-13T07:59:59.549Z,129.00
2023-02-13T08:00:55.996Z,134.00
2023-02-13T08:01:55.421Z,137.00
2023-02-13T08:02:56.057Z,126.00
2023-02-13T08:03:57.093Z,131.00
2023-02-13T08:04:56.383Z,131.00
2023-02-13T08:05:58.016Z,140.00
2023-02-13T08:06:57.548Z,150.00
2023-02-13T08:07:57.850Z,147.00
2023-02-13T08:08:56.087Z,154.00
2023-02-13T08:09:56.198Z,157.00
2023-02-13T08:10:56.356Z,157.00
2023-02-13T08:11:58.125Z,154.00
2023-02-13T08:12:56.689Z,145.00
2023-02-13T08:13:58.883Z,158.00
2023-02-13T08:14:56.922Z,163.00
2023-02-13T08:15:57.406Z,163.00
2023-02-13T08:16:59.793Z,164.00
2023-02-13T08:17:58.198Z,159.00
2023-02-13T08:18:58.352Z,152.00
2023-02-13T08:19:59.533Z,154.00
2023-02-13T08:20:59.428Z,153.00
2023-02-13T08:21:58.609Z,158.00
2023-02-13T08:22:58.741Z,167.00
2023-02-13T08:23:59.783Z,169.00
2023-02-13T08:24:58.312Z,173.00
2023-02-13T08:26:01.433Z,173.00
2023-02-13T08:27:01.022Z,182.00
2023-02-13T08:28:01.360Z,187.00
2023-02-13T08:29:00.757Z,192.00
2023-02-13T08:29:59.028Z,196.00
2023-02-13T08:31:00.095Z,195.00
2023-02-13T08:31:59.903Z,201.00
2023-02-13T08:33:01.122Z,203.00
2023-02-13T08:34:03.389Z,206.00
2023-02-13T08:34:59.984Z,212.00
2023-02-13T08:36:01.127Z,220.00
2023-02-13T08:36:59.892Z,222.00
2023-02-13T08:37:59.977Z,229.00
2023-02-13T08:39:01.998Z,237.00
2023-02-13T08:40:00.951Z,245.00
2023-02-13T08:41:01.109Z,243.00
2023-02-13T08:42:00.547Z,239.00
2023-02-13T08:43:02.282Z,229.00
2023-02-13T08:44:04.343Z,228.00
2023-02-13T08:45:00.887Z,228.00
2023-02-13T08:46:02.095Z,235.00
2023-02-13T08:47:01.494Z,241.00
2023-02-13T08:48:01.311Z,246.00
2023-02-13T08:49:02.275Z,245.00
2023-02-13T08:50:01.598Z,244.00
2023-02-13T08:51:02.713Z,245.00
2023-02-13T08:52:03.027Z,257.00
2023-02-13T08:53:01.991Z,269.00
2023-02-13T08:54:02.241Z,280.00
2023-02-13T08:55:03.215Z,286.00
2023-02-13T08:56:02.499Z,286.00
2023-02-13T08:57:04.470Z,291.00
2023-02-13T08:58:03.108Z,288.00
2023-02-13T08:59:02.974Z,285.00
2023-02-13T09:00:03.039Z,282.00
2023-02-13T09:01:05.026Z,282.00
2023-02-13T09:02:06.247Z,286.00
2023-02-13T09:03:03.590Z,287.00
2023-02-13T09:04:04.523Z,288.00
2023-02-13T09:05:03.758Z,293.00
2023-02-13T09:06:06.519Z,296.00
2023-02-13T09:07:04.216Z,298.00
2023-02-13T09:08:04.934Z,297.00
2023-02-13T09:09:07.924Z,307.00
2023-02-13T09:10:04.402Z,313.00
2023-02-13T09:11:04.532Z,315.00
2023-02-13T09:12:04.873Z,313.00
2023-02-13T09:13:04.807Z,315.00
2023-02-13T09:14:06.541Z,319.00
2023-02-13T09:15:06.787Z,324.00
2023-02-13T09:16:06.984Z,330.00
2023-02-13T09:17:05.384Z,339.00
2023-02-13T09:18:07.075Z,337.00
2023-02-13T09:19:07.332Z,340.00
2023-02-13T09:20:05.698Z,342.00
2023-02-13T09:21:07.433Z,344.00
2023-02-13T09:22:07.672Z,351.00
2023-02-13T09:23:06.310Z,354.00
2023-02-13T09:24:07.322Z,360.00
2023-02-13T09:25:07.335Z,356.00
2023-02-13T09:26:07.575Z,354.00
2023-02-13T09:27:07.617Z,356.00
2023-02-13T09:28:07.935Z,357.00
2023-02-13T09:29:08.109Z,364.00
2023-02-13T09:30:07.997Z,369.00
2023-02-13T09:31:08.213Z,380.00
2023-02-13T09:32:10.292Z,395.00
2023-02-13T09:33:07.417Z,400.00
2023-02-13T09:34:09.477Z,400.00
2023-02-13T09:35:08.736Z,396.00
2023-02-13T09:36:08.810Z,403.00
2023-02-13T09:37:08.934Z,406.00
2023-02-13T09:38:09.056Z,403.00
2023-02-13T09:39:09.285Z,402.00
2023-02-13T09:40:08.320Z,396.00
2023-02-13T09:41:08.450Z,388.00
2023-02-13T09:42:08.590Z,376.00
2023-02-13T09:43:08.693Z,379.00
2023-02-13T09:44:09.916Z,382.00
2023-02-13T09:45:08.962Z,396.00
2023-02-13T09:46:09.179Z,404.00
2023-02-13T09:47:09.277Z,415.00
2023-02-13T09:48:09.413Z,420.00
2023-02-13T09:49:11.668Z,435.00
2023-02-13T09:50:10.653Z,448.00
2023-02-13T09:51:09.867Z,460.00
2023-02-13T09:52:10.925Z,475.00
2023-02-13T09:53:10.103Z,484.00
2023-02-13T09:54:11.320Z,488.00
2023-02-13T09:55:11.553Z,475.00
2023-02-13T09:56:13.211Z,466.00
2023-02-13T09:57:11.949Z,462.00
2023-02-13T09:58:11.810Z,451.00
2023-02-13T09:59:12.312Z,450.00
2023-02-13T10:00:15.284Z,448.00
2023-02-13T10:01:16.759Z,446.00
2023-02-13T10:02:12.315Z,452.00
2023-02-13T10:13:37.716Z,540.00
2023-02-13T10:14:37.787Z,543.00
2023-02-13T10:15:39.524Z,538.00
2023-02-13T10:16:38.073Z,532.00
2023-02-13T10:17:40.860Z,535.00
2023-02-13T10:18:37.737Z,526.00
2023-02-13T10:19:38.293Z,513.00
2023-02-13T10:20:40.349Z,506.00
2023-02-13T10:21:37.804Z,497.00
2023-02-13T10:22:37.914Z,488.00
2023-02-13T10:23:38.936Z,479.00
2023-02-13T10:24:41.844Z,450.00
2023-02-13T10:25:42.133Z,437.00
2023-02-13T10:26:39.782Z,441.00
2023-02-13T10:27:38.506Z,471.00
2023-02-13T10:28:41.248Z,491.00
2023-02-13T10:29:39.646Z,511.00
2023-02-13T10:30:41.892Z,517.00
2023-02-13T10:31:39.450Z,510.00
2023-02-13T10:32:39.225Z,503.00
2023-02-13T10:33:39.513Z,502.00
2023-02-13T10:34:40.431Z,503.00
2023-02-13T10:35:41.383Z,499.00
2023-02-13T10:36:42.610Z,504.00
2023-02-13T10:37:39.855Z,510.00
2023-02-13T10:38:39.974Z,516.00
2023-02-13T10:39:43.235Z,527.00
2023-02-13T10:40:40.330Z,541.00
2023-02-13T10:41:42.366Z,566.00
2023-02-13T10:42:41.353Z,572.00
2023-02-13T10:43:40.644Z,565.00
2023-02-13T10:44:40.821Z,558.00
2023-02-13T10:45:40.944Z,545.00
2023-02-13T10:46:43.292Z,542.00
2023-02-13T10:47:41.630Z,536.00
2023-02-13T10:48:42.162Z,538.00
2023-02-13T10:49:42.339Z,552.00
2023-02-13T10:50:41.533Z,581.00
2023-02-13T10:51:43.302Z,598.00
2023-02-13T10:52:41.837Z,612.00
2023-02-13T10:53:44.757Z,618.00
2023-02-13T10:54:42.115Z,635.00
2023-02-13T10:55:44.230Z,654.00
2023-02-13T10:56:44.003Z,666.00
2023-02-13T10:57:44.212Z,670.00
2023-02-13T10:58:44.456Z,674.00
2023-02-13T10:59:42.810Z,667.00
2023-02-13T11:00:44.534Z,641.00
2023-02-13T11:01:43.090Z,612.00
2023-02-13T11:02:44.808Z,606.00
2023-02-13T11:03:43.290Z,632.00
2023-02-13T11:04:45.081Z,662.00
2023-02-13T11:05:44.768Z,673.00
2023-02-13T11:06:46.236Z,664.00
2023-02-13T11:07:45.489Z,661.00
2023-02-13T11:08:44.003Z,644.00
2023-02-13T11:09:45.109Z,615.00
2023-02-13T11:10:44.245Z,565.00
2023-02-13T11:11:44.389Z,530.00
2023-02-13T11:12:45.581Z,528.00
2023-02-13T11:13:44.673Z,549.00
2023-02-13T11:14:46.393Z,561.00
2023-02-13T11:15:46.645Z,568.00
2023-02-13T11:16:46.851Z,588.00
2023-02-13T11:17:47.071Z,598.00
2023-02-13T11:18:47.346Z,621.00
2023-02-13T11:19:47.051Z,634.00
2023-02-13T11:20:47.273Z,616.00
2023-02-13T11:21:47.513Z,600.00
2023-02-13T11:22:47.720Z,584.00
2023-02-13T11:23:46.055Z,552.00
2023-02-13T11:24:48.292Z,528.00
2023-02-13T11:25:48.289Z,527.00
2023-02-13T11:26:47.999Z,530.00
2023-02-13T11:27:46.679Z,547.00
2023-02-13T11:28:46.914Z,551.00
2023-02-13T11:29:48.631Z,557.00
2023-02-13T11:30:48.133Z,562.00
2023-02-13T11:31:48.112Z,547.00
2023-02-13T11:32:47.507Z,553.00
2023-02-13T11:33:49.366Z,559.00
2023-02-13T11:34:47.679Z,598.00
2023-02-13T11:35:49.457Z,635.00
2023-02-13T11:36:51.131Z,602.00
2023-02-13T11:37:49.059Z,568.00
2023-02-13T11:38:48.227Z,567.00
2023-02-13T11:39:50.883Z,585.00
2023-02-13T11:40:50.143Z,570.00
2023-02-13T11:41:48.609Z,547.00
2023-02-13T11:42:48.764Z,522.00
2023-02-13T11:43:48.981Z,518.00
2023-02-13T11:44:49.060Z,504.00
2023-02-13T11:45:50.678Z,483.00
2023-02-13T11:46:50.313Z,474.00
2023-02-13T11:47:49.989Z,466.00
2023-02-13T11:48:49.616Z,458.00
2023-02-13T11:49:49.778Z,459.00
2023-02-13T11:50:50.545Z,469.00
2023-02-13T11:51:50.053Z,484.00
2023-02-13T11:52:50.826Z,512.00
2023-02-13T11:53:52.096Z,535.00
2023-02-13T11:54:52.683Z,545.00
2023-02-13T11:55:52.357Z,584.00
2023-02-13T11:57:04.327Z,628.00
2023-02-13T11:57:51.856Z,674.00
2023-02-13T11:58:52.646Z,753.00
2023-02-13T11:59:52.832Z,818.00
2023-02-13T12:00:51.321Z,849.00
2023-02-13T12:01:53.069Z,855.00
2023-02-13T12:02:52.646Z,814.00
2023-02-13T12:03:51.787Z,760.00
2023-02-13T12:04:52.979Z,716.00
2023-02-13T12:05:53.778Z,719.00
2023-02-13T12:06:52.179Z,764.00
2023-02-13T12:07:52.380Z,808.00
2023-02-13T12:08:52.470Z,830.00
2023-02-13T12:09:54.238Z,786.00
2023-02-13T12:10:52.742Z,688.00
2023-02-13T12:11:54.488Z,615.00
2023-02-13T12:12:53.078Z,670.00
2023-02-13T12:13:55.139Z,665.00
2023-02-13T12:14:53.308Z,672.00
2023-02-13T12:15:53.721Z,740.00
2023-02-13T12:16:57.422Z,826.00
2023-02-13T12:17:56.774Z,877.00
2023-02-13T12:18:54.791Z,844.00
2023-02-13T12:19:54.169Z,771.00
2023-02-13T12:20:54.669Z,770.00
2023-02-13T12:21:55.702Z,918.00
2023-02-13T12:22:54.632Z,1025.00
2023-02-13T12:23:56.087Z,1085.00
2023-02-13T12:24:55.484Z,1099.00
2023-02-13T12:25:55.701Z,1110.00
2023-02-13T12:26:56.519Z,1120.00
2023-02-13T12:27:54.972Z,1115.00
2023-02-13T12:28:55.916Z,1103.00
2023-02-13T12:29:55.189Z,1028.00
2023-02-13T12:30:55.440Z,997.00
2023-02-13T12:31:57.096Z,1026.00
2023-02-13T12:32:56.497Z,998.00
2023-02-13T12:33:56.647Z,980.00
2023-02-13T12:34:56.835Z,1054.00
2023-02-13T12:35:57.617Z,1167.00
2023-02-13T12:36:56.885Z,1175.00
2023-02-13T12:37:57.060Z,1083.00
2023-02-13T12:38:57.976Z,989.00
2023-02-13T12:39:56.518Z,1030.00
2023-02-13T12:40:57.100Z,1055.00
2023-02-13T12:41:56.813Z,1235.00
2023-02-13T12:42:59.495Z,1391.00
2023-02-13T12:43:57.007Z,1214.00
2023-02-13T12:44:57.175Z,1285.00
2023-02-13T12:45:57.400Z,1019.00
2023-02-13T12:46:57.450Z,929.00
2023-02-13T12:49:19.759Z,1061.00
2023-02-13T12:50:19.789Z,1093.00
2023-02-13T12:51:20.181Z,1115.00
2023-02-13T12:52:20.097Z,1042.00
2023-02-13T12:53:20.200Z,955.00
2023-02-13T12:54:20.331Z,953.00
2023-02-13T12:55:20.443Z,902.00
2023-02-13T12:56:20.746Z,798.00
2023-02-13T12:57:21.614Z,681.00
2023-02-13T12:58:22.100Z,612.00
2023-02-13T12:59:21.074Z,617.00
2023-02-13T13:00:21.042Z,618.00
2023-02-13T13:01:21.725Z,652.00
2023-02-13T13:02:21.695Z,606.00
2023-02-13T13:03:21.629Z,527.00
2023-02-13T13:04:21.718Z,465.00
2023-02-13T13:05:22.739Z,499.00
2023-02-13T13:06:22.119Z,696.00
2023-02-13T13:07:22.967Z,716.00
2023-02-13T13:08:22.656Z,765.00
2023-02-13T13:09:22.350Z,866.00
2023-02-13T13:10:22.761Z,970.00
2023-02-13T13:11:23.462Z,1070.00
2023-02-13T13:12:23.597Z,963.00
2023-02-13T13:13:23.000Z,782.00
2023-02-13T13:14:23.428Z,764.00
2023-02-13T13:15:23.110Z,893.00
2023-02-13T13:16:23.315Z,1126.00
2023-02-13T13:17:23.656Z,1147.00
2023-02-13T13:18:24.038Z,857.00
2023-02-13T13:19:24.056Z,661.00
2023-02-13T13:20:23.795Z,760.00
2023-02-13T13:21:24.273Z,730.00
2023-02-13T13:22:25.027Z,651.00
2023-02-13T13:23:24.228Z,495.00
2023-02-13T13:24:24.496Z,466.00
2023-02-13T13:25:24.916Z,426.00
2023-02-13T13:26:24.949Z,394.00
2023-02-13T13:27:24.942Z,392.00
2023-02-13T13:28:24.878Z,424.00
2023-02-13T13:29:25.356Z,420.00
2023-02-13T13:30:26.258Z,430.00
2023-02-13T13:31:25.263Z,586.00
2023-02-13T13:32:26.515Z,513.00
2023-02-13T13:33:26.346Z,534.00
2023-02-13T13:34:27.527Z,532.00
2023-02-13T13:35:25.996Z,492.00
2023-02-13T13:36:25.968Z,405.00
2023-02-13T13:37:26.027Z,481.00
2023-02-13T13:38:26.481Z,611.00
2023-02-13T13:39:26.356Z,622.00
2023-02-13T13:40:26.502Z,620.00
2023-02-13T13:41:27.450Z,613.00
2023-02-13T13:42:26.775Z,600.00
2023-02-13T13:43:26.975Z,598.00
2023-02-13T13:44:28.734Z,595.00
2023-02-13T13:45:28.128Z,594.00
2023-02-13T13:46:27.330Z,593.00
2023-02-13T13:47:27.393Z,606.00
2023-02-13T13:48:27.812Z,603.00
2023-02-13T13:49:27.613Z,601.00
2023-02-13T13:50:28.758Z,598.00
2023-02-13T13:51:28.046Z,596.00
2023-02-13T13:52:28.092Z,599.00
2023-02-13T13:53:28.265Z,606.00
2023-02-13T13:54:28.260Z,606.00
2023-02-13T13:55:28.504Z,603.00
2023-02-13T13:56:29.512Z,601.00
2023-02-13T13:57:29.623Z,589.00
2023-02-13T13:58:29.012Z,587.00
2023-02-13T13:59:29.966Z,592.00
2023-02-13T14:00:30.090Z,592.00
2023-02-13T14:01:30.136Z,599.00
2023-02-13T14:02:29.439Z,599.00
2023-02-13T14:03:30.394Z,588.00
2023-02-13T14:04:30.063Z,583.00
2023-02-13T14:05:31.274Z,571.00
2023-02-13T14:06:29.875Z,559.00
2023-02-13T14:07:30.199Z,548.00
2023-02-13T14:08:31.061Z,545.00
2023-02-13T14:09:31.280Z,529.00
2023-02-13T14:12:50.029Z,551.00
2023-02-13T14:13:46.865Z,544.00
2023-02-13T14:14:47.495Z,545.00
2023-02-13T14:15:47.390Z,540.00
2023-02-13T14:16:48.514Z,540.00
2023-02-13T14:17:48.302Z,536.00
2023-02-13T14:18:47.777Z,526.00
2023-02-13T14:19:48.602Z,518.00
2023-02-13T14:20:48.684Z,509.00
2023-02-13T14:21:48.857Z,499.00
2023-02-13T14:22:49.133Z,493.00
2023-02-13T14:23:48.734Z,483.00
2023-02-13T14:24:50.280Z,470.00
2023-02-13T14:25:49.740Z,468.00
2023-02-13T14:26:52.334Z,472.00
2023-02-13T14:27:50.289Z,465.00
2023-02-13T14:28:50.244Z,462.00
2023-02-13T14:29:48.981Z,453.00
2023-02-13T14:30:50.479Z,447.00
2023-02-13T14:31:50.250Z,440.00
2023-02-13T14:32:50.443Z,433.00
2023-02-13T14:33:51.497Z,427.00
2023-02-13T14:34:51.508Z,423.00
2023-02-13T14:35:50.745Z,420.00
2023-02-13T14:36:51.053Z,416.00
2023-02-13T14:37:51.737Z,413.00
2023-02-13T14:38:51.617Z,407.00
2023-02-13T14:39:51.696Z,403.00
2023-02-13T14:40:50.453Z,396.00
2023-02-13T14:41:50.697Z,391.00
2023-02-13T14:42:50.736Z,384.00
2023-02-13T14:43:50.786Z,381.00
2023-02-13T14:44:52.440Z,375.00
2023-02-13T14:45:51.134Z,372.00
2023-02-13T14:46:51.548Z,371.00
2023-02-13T14:47:52.383Z,369.00
2023-02-13T14:48:51.564Z,366.00
2023-02-13T14:49:52.988Z,362.00
2023-02-13T14:50:51.780Z,360.00
2023-02-13T14:51:52.898Z,351.00
2023-02-13T14:52:52.192Z,348.00
2023-02-13T14:53:53.157Z,343.00
2023-02-13T14:54:52.602Z,339.00
2023-02-13T14:55:53.361Z,336.00
2023-02-13T14:56:54.233Z,332.00
2023-02-13T14:57:53.655Z,329.00
2023-02-13T14:58:52.773Z,326.00
2023-02-13T14:59:53.163Z,325.00
2023-02-13T15:00:54.350Z,325.00
2023-02-13T15:01:53.619Z,322.00
2023-02-13T15:02:53.818Z,315.00
2023-02-13T15:03:53.434Z,308.00
2023-02-13T15:04:53.821Z,304.00
2023-02-13T15:05:53.714Z,304.00
2023-02-13T15:06:54.136Z,300.00
2023-02-13T15:07:54.885Z,291.00
2023-02-13T15:08:54.084Z,282.00
2023-02-13T15:09:54.664Z,276.00
2023-02-13T15:10:54.477Z,274.00
2023-02-13T15:11:54.681Z,271.00
2023-02-13T15:12:54.782Z,268.00
2023-02-13T15:13:54.871Z,265.00
2023-02-13T15:14:55.932Z,261.00
2023-02-13T15:15:56.152Z,256.00
2023-02-13T15:16:55.526Z,254.00
2023-02-13T15:17:56.373Z,251.00
2023-02-13T15:18:55.595Z,247.00
2023-02-13T15:19:55.742Z,241.00
2023-02-13T15:20:57.316Z,240.00
2023-02-13T15:21:56.045Z,233.00
2023-02-13T15:22:56.188Z,228.00
2023-02-13T15:23:56.271Z,225.00
2023-02-13T15:24:56.497Z,222.00
2023-02-13T15:25:57.754Z,220.00
2023-02-13T15:26:58.235Z,217.00
2023-02-13T15:27:58.268Z,214.00
2023-02-13T15:28:56.975Z,211.00
2023-02-13T15:29:58.355Z,206.00
2023-02-13T15:30:58.810Z,202.00
2023-02-13T15:31:57.635Z,198.00
2023-02-13T15:32:57.612Z,196.00
2023-02-13T15:33:57.733Z,194.00
2023-02-13T15:34:57.847Z,191.00
2023-02-13T15:38:15.361Z,179.00
2023-02-13T15:39:14.293Z,176.00
2023-02-13T15:40:15.380Z,172.00
2023-02-13T15:41:16.154Z,167.00
2023-02-13T15:42:14.924Z,162.00
2023-02-13T15:43:15.871Z,156.00
2023-02-13T15:44:15.259Z,152.00
2023-02-13T15:45:15.169Z,150.00
2023-02-13T15:46:16.294Z,150.00
2023-02-13T15:47:15.432Z,147.00
2023-02-13T15:48:16.508Z,143.00
2023-02-13T15:49:16.159Z,140.00
2023-02-13T15:50:16.069Z,136.00
2023-02-13T15:51:16.113Z,133.00
2023-02-13T15:52:17.152Z,130.00
2023-02-13T15:53:16.335Z,125.00
2023-02-13T15:54:17.346Z,123.00
2023-02-13T15:55:17.458Z,120.00
2023-02-13T15:56:17.988Z,118.00
2023-02-13T15:57:18.139Z,115.00
2023-02-13T15:58:17.889Z,112.00
2023-02-13T15:59:18.015Z,108.00
2023-02-13T16:00:18.545Z,104.00
2023-02-13T16:01:17.392Z,103.00
2023-02-13T16:12:44.882Z,70.00
2023-02-13T16:13:44.445Z,68.00
2023-02-13T16:14:43.974Z,66.00
2023-02-13T16:15:46.059Z,63.00
2023-02-13T16:16:44.238Z,62.00
2023-02-13T16:17:44.348Z,59.00
2023-02-13T16:18:44.993Z,56.00
2023-02-13T16:19:44.817Z,52.00
2023-02-13T16:20:46.208Z,50.00
2023-02-13T16:21:44.869Z,47.00
2023-02-13T16:22:46.266Z,45.00
2023-02-13T16:23:45.213Z,42.00
2023-02-13T16:24:45.255Z,40.00
2023-02-13T16:25:47.062Z,38.00
2023-02-13T16:26:45.560Z,36.00
2023-02-13T16:27:46.676Z,36.00
2023-02-13T16:28:46.464Z,33.00
2023-02-13T16:29:47.139Z,30.00
2023-02-13T16:30:47.133Z,29.00
2023-02-13T16:31:46.326Z,27.00
2023-02-13T16:32:46.503Z,25.00
2023-02-13T16:33:46.616Z,23.00
2023-02-13T16:34:47.017Z,21.00
2023-02-13T16:35:47.998Z,19.00
2023-02-13T16:36:47.835Z,18.00
2023-02-13T16:37:47.148Z,17.00
2023-02-13T16:38:48.334Z,15.00
2023-02-13T16:39:48.846Z,14.00
2023-02-13T16:40:48.700Z,14.00
2023-02-13T16:41:47.624Z,8.00
2023-02-13T16:42:48.945Z,9.00
2023-02-13T16:43:48.834Z,8.00
2023-02-13T16:44:48.045Z,5.00
2023-02-13T16:45:49.606Z,6.00
2023-02-13T16:46:49.555Z,3.00
2023-02-13T16:47:50.105Z,5.00
2023-02-13T16:48:49.624Z,6.00
2023-02-13T16:49:49.165Z,2.00
2023-02-13T16:50:49.835Z,3.00
2023-02-13T16:51:48.987Z,3.00
2023-02-13T16:52:49.086Z,1.00
2023-02-13T16:53:50.315Z,2.00
2023-02-13T16:54:49.380Z,2.00
2023-02-13T16:55:50.794Z,0.00
2023-02-13T16:56:49.927Z,1.00
2023-02-13T16:57:49.935Z,1.00
2023-02-13T16:58:50.875Z,1.00
2023-02-13T16:59:50.074Z,1.00
2023-02-13T17:00:51.592Z,0.00
2023-02-13T17:01:51.559Z,0.00
2023-02-13T17:02:51.606Z,0.00
2023-02-13T17:03:50.675Z,0.00
2023-02-13T17:04:52.056Z,0.00
2023-02-13T17:05:50.920Z,0.00
2023-02-13T17:06:51.115Z,0.00
2023-02-13T17:07:52.178Z,0.00
2023-02-13T17:08:51.752Z,0.00
2023-02-13T17:09:52.490Z,0.00